Time;durP1;ratioP1;P1;durP2;ratioP2;P2;SDS_P1;SDS_P2;PMS_P1;PMS_P2;Temp;Humidity;BMP_temperature;BMP_pressure;BME280_temperature;BME280_humidity;BME280_pressure;Samples;Min_cycle;Max_cycle;Signal;HPM_P1;HPM_P2
2023/09/25 00:01:57;;;;;;;6.65;4.25;;;;;;;;;;4975010;28;20035;-62
2023/09/25 00:04:25;;;;;;;8.10;4.88;;;;;;;;;;4974829;28;20023;-62
2023/09/25 00:06:51;;;;;;;6.40;4.13;;;;;;;;;;4974662;28;20023;-62
2023/09/25 00:09:16;;;;;;;6.90;4.65;;;;;;;;;;4974844;28;20030;-62
2023/09/25 00:11:42;;;;;;;12.20;5.25;;;;;;;;;;4975260;28;20019;-62
2023/09/25 00:14:08;;;;;;;7.00;4.40;;;;;;;;;;4975156;28;20034;-62
2023/09/25 00:16:34;;;;;;;7.15;3.95;;;;;;;;;;4975277;28;20029;-62
2023/09/25 00:18:59;;;;;;;7.95;3.80;;;;;;;;;;4975229;28;20062;-62
2023/09/25 00:21:24;;;;;;;7.90;4.00;;;;;;;;;;4974500;28;20492;-62
2023/09/25 00:23:50;;;;;;;7.22;4.47;;;;;;;;;;4975016;28;20026;-63
2023/09/25 00:26:15;;;;;;;8.45;4.15;;;;;;;;;;4975121;28;20029;-63
2023/09/25 00:28:42;;;;;;;5.60;3.83;;;;;;;;;;4974996;28;20037;-63
2023/09/25 00:31:09;;;;;;;7.75;4.03;;;;;;;;;;4974995;28;20027;-63
2023/09/25 00:33:34;;;;;;;6.97;3.95;;;;;;;;;;4975003;28;20123;-63
2023/09/25 00:36:00;;;;;;;6.22;4.13;;;;;;;;;;4974729;28;20500;-63
2023/09/25 00:38:25;;;;;;;5.78;3.75;;;;;;;;;;4974706;28;20468;-63
2023/09/25 00:40:51;;;;;;;6.95;3.97;;;;;;;;;;4974802;28;20035;-63
2023/09/25 00:43:16;;;;;;;5.68;3.72;;;;;;;;;;4974831;28;20376;-63
2023/09/25 00:45:44;;;;;;;10.00;4.15;;;;;;;;;;4974605;28;20023;-63
2023/09/25 00:48:21;;;;;;;6.97;3.88;;;;;;;;;;4974558;28;20515;-62
2023/09/25 00:50:48;;;;;;;6.68;4.30;;;;;;;;;;4974617;28;20121;-63
2023/09/25 00:53:15;;;;;;;7.18;4.05;;;;;;;;;;4974564;28;20503;-63
2023/09/25 00:55:41;;;;;;;6.10;3.75;;;;;;;;;;4974699;28;20061;-63
2023/09/25 00:58:07;;;;;;;7.53;3.55;;;;;;;;;;4974732;28;20035;-62
2023/09/25 01:00:35;;;;;;;6.18;4.03;;;;;;;;;;4987984;28;20033;-63
2023/09/25 01:03:01;;;;;;;8.32;4.03;;;;;;;;;;4993963;28;20022;-63
2023/09/25 01:05:27;;;;;;;8.50;4.18;;;;;;;;;;4968890;28;20034;-62
2023/09/25 01:07:53;;;;;;;9.38;4.25;;;;;;;;;;4974348;28;20031;-63
2023/09/25 01:10:19;;;;;;;7.10;3.85;;;;;;;;;;4974347;28;20464;-62
2023/09/25 01:12:46;;;;;;;8.15;3.92;;;;;;;;;;4974237;28;20472;-63
2023/09/25 01:15:14;;;;;;;7.60;4.10;;;;;;;;;;4974255;28;20030;-63
2023/09/25 01:17:41;;;;;;;6.72;4.40;;;;;;;;;;4974252;28;20498;-62
2023/09/25 01:20:13;;;;;;;9.02;4.40;;;;;;;;;;4974011;28;20027;-63
2023/09/25 01:22:46;;;;;;;7.65;4.63;;;;;;;;;;4973914;28;20452;-62
2023/09/25 01:25:12;;;;;;;8.38;5.00;;;;;;;;;;4974100;28;20476;-63
2023/09/25 01:27:39;;;;;;;7.30;4.07;;;;;;;;;;4972806;28;20027;-63
2023/09/25 01:30:06;;;;;;;7.18;4.40;;;;;;;;;;4974077;28;20027;-62
2023/09/25 01:32:31;;;;;;;8.02;4.35;;;;;;;;;;4973172;28;20062;-63
2023/09/25 01:34:57;;;;;;;6.65;4.15;;;;;;;;;;4974101;28;20049;-63
2023/09/25 01:37:23;;;;;;;7.38;4.20;;;;;;;;;;4974034;28;20483;-62
2023/09/25 01:39:48;;;;;;;9.82;4.30;;;;;;;;;;4974063;28;20092;-62
2023/09/25 01:42:14;;;;;;;7.40;4.75;;;;;;;;;;4973958;28;20376;-62
2023/09/25 01:44:40;;;;;;;8.27;4.53;;;;;;;;;;4972639;28;20070;-63
2023/09/25 01:47:05;;;;;;;7.10;4.40;;;;;;;;;;4973499;28;20166;-62
2023/09/25 01:49:32;;;;;;;7.25;4.38;;;;;;;;;;4973755;28;20102;-62
2023/09/25 01:51:58;;;;;;;8.50;4.97;;;;;;;;;;4973973;28;20038;-63
2023/09/25 01:54:23;;;;;;;7.70;4.60;;;;;;;;;;4973806;28;20022;-62
2023/09/25 01:56:49;;;;;;;8.82;4.63;;;;;;;;;;4973806;28;20033;-63
2023/09/25 01:59:14;;;;;;;7.32;4.53;;;;;;;;;;4976731;28;20033;-63
2023/09/25 02:01:40;;;;;;;7.82;6.05;;;;;;;;;;4993034;28;20018;-63
2023/09/25 02:04:07;;;;;;;15.57;5.68;;;;;;;;;;4988407;28;20027;-63
2023/09/25 02:06:32;;;;;;;7.30;4.75;;;;;;;;;;4973671;28;20027;-63
2023/09/25 02:08:58;;;;;;;8.00;4.97;;;;;;;;;;4973785;28;20046;-63
2023/09/25 02:11:23;;;;;;;8.63;4.63;;;;;;;;;;4973788;28;20023;-62
2023/09/25 02:13:49;;;;;;;8.38;4.38;;;;;;;;;;4972434;28;20439;-62
2023/09/25 02:16:15;;;;;;;9.82;4.80;;;;;;;;;;4973480;28;20101;-63
2023/09/25 02:18:40;;;;;;;7.28;4.47;;;;;;;;;;4973651;28;20417;-64
2023/09/25 02:21:06;;;;;;;6.07;4.18;;;;;;;;;;4972502;28;20035;-63
2023/09/25 02:23:31;;;;;;;6.55;4.38;;;;;;;;;;4973405;28;20085;-62
2023/09/25 02:25:57;;;;;;;7.82;4.18;;;;;;;;;;4973529;28;20177;-63
2023/09/25 02:28:22;;;;;;;7.05;4.22;;;;;;;;;;4973571;28;20380;-62
2023/09/25 02:30:48;;;;;;;7.18;4.00;;;;;;;;;;4973361;28;20027;-64
2023/09/25 02:33:13;;;;;;;6.38;3.80;;;;;;;;;;4973559;28;20019;-64
2023/09/25 02:35:38;;;;;;;8.05;4.60;;;;;;;;;;4973579;28;20054;-64
2023/09/25 02:38:05;;;;;;;9.00;4.53;;;;;;;;;;4973506;28;20023;-63
2023/09/25 02:40:31;;;;;;;8.18;4.03;;;;;;;;;;4973416;28;20121;-63
2023/09/25 02:42:57;;;;;;;7.28;4.05;;;;;;;;;;4974142;28;20026;-63
2023/09/25 02:45:22;;;;;;;7.28;4.03;;;;;;;;;;4976727;28;20114;-63
2023/09/25 02:47:48;;;;;;;7.40;4.53;;;;;;;;;;4976664;28;20550;-63
2023/09/25 02:50:15;;;;;;;6.80;4.00;;;;;;;;;;4976886;28;20033;-63
2023/09/25 02:52:43;;;;;;;9.00;4.00;;;;;;;;;;4976803;28;20027;-63
2023/09/25 02:55:09;;;;;;;9.25;4.30;;;;;;;;;;4976827;28;20038;-62
2023/09/25 02:57:35;;;;;;;8.05;4.35;;;;;;;;;;4976726;28;20085;-63
2023/09/25 03:00:00;;;;;;;13.02;5.22;;;;;;;;;;4985790;28;20018;-62
2023/09/25 03:02:26;;;;;;;11.90;6.65;;;;;;;;;;4995990;28;20029;-62
2023/09/25 03:04:51;;;;;;;9.35;4.78;;;;;;;;;;4983543;28;20439;-63
2023/09/25 03:07:17;;;;;;;8.55;4.57;;;;;;;;;;4976579;28;20035;-62
2023/09/25 03:09:43;;;;;;;9.63;4.38;;;;;;;;;;4976355;28;20027;-62
2023/09/25 03:12:08;;;;;;;7.28;4.20;;;;;;;;;;4976371;28;20030;-63
2023/09/25 03:14:34;;;;;;;7.63;3.95;;;;;;;;;;4976295;28;20023;-63
2023/09/25 03:16:59;;;;;;;10.85;4.05;;;;;;;;;;4976271;28;20023;-63
2023/09/25 03:19:25;;;;;;;9.52;4.22;;;;;;;;;;4976192;28;20041;-63
2023/09/25 03:21:50;;;;;;;6.05;3.90;;;;;;;;;;4976277;28;20392;-63
2023/09/25 03:24:15;;;;;;;7.63;4.68;;;;;;;;;;4975972;28;20460;-62
2023/09/25 03:26:41;;;;;;;12.05;5.13;;;;;;;;;;4976197;28;20366;-63
2023/09/25 03:29:06;;;;;;;9.70;5.25;;;;;;;;;;4974583;28;20030;-62
2023/09/25 03:31:33;;;;;;;8.23;5.47;;;;;;;;;;4976120;28;20027;-62
2023/09/25 03:33:59;;;;;;;11.38;5.20;;;;;;;;;;4976065;28;20126;-63
2023/09/25 03:36:24;;;;;;;7.45;5.00;;;;;;;;;;4975985;28;20062;-62
2023/09/25 03:38:49;;;;;;;9.45;5.32;;;;;;;;;;4975797;28;20030;-62
2023/09/25 03:41:15;;;;;;;7.88;5.57;;;;;;;;;;4975791;28;20353;-65
2023/09/25 03:43:41;;;;;;;9.57;5.32;;;;;;;;;;4975673;28;20058;-62
2023/09/25 03:46:06;;;;;;;13.00;5.80;;;;;;;;;;4975774;28;20038;-63
2023/09/25 03:48:32;;;;;;;10.32;5.45;;;;;;;;;;4975438;28;20496;-63
2023/09/25 03:50:57;;;;;;;9.20;5.45;;;;;;;;;;4975711;28;20102;-63
2023/09/25 03:53:23;;;;;;;9.52;5.50;;;;;;;;;;4974525;28;20484;-62
2023/09/25 03:55:48;;;;;;;9.00;5.30;;;;;;;;;;4974756;28;20027;-63
2023/09/25 03:58:14;;;;;;;8.15;5.18;;;;;;;;;;4975341;28;20027;-63
2023/09/25 04:00:40;;;;;;;9.45;4.50;;;;;;;;;;4990186;28;20085;-63
2023/09/25 04:03:05;;;;;;;9.55;5.10;;;;;;;;;;4994776;28;20416;-62
2023/09/25 04:05:33;;;;;;;9.02;4.70;;;;;;;;;;4978556;28;20396;-62
2023/09/25 04:07:58;;;;;;;7.53;5.28;;;;;;;;;;4973953;28;20038;-63
2023/09/25 04:10:24;;;;;;;10.30;4.75;;;;;;;;;;4975235;28;20424;-63
2023/09/25 04:12:49;;;;;;;10.23;5.25;;;;;;;;;;4975024;28;20041;-63
2023/09/25 04:15:16;;;;;;;13.18;4.88;;;;;;;;;;4975194;28;20031;-62
2023/09/25 04:17:42;;;;;;;8.15;4.38;;;;;;;;;;4975192;28;20052;-63
2023/09/25 04:23:03;;;;;;;9.77;4.85;;;;;;;;;;4958112;28;20070;-62
2023/09/25 04:25:29;;;;;;;6.35;4.20;;;;;;;;;;4974916;28;20033;-62
2023/09/25 04:27:55;;;;;;;6.75;4.30;;;;;;;;;;4974691;28;20029;-63
2023/09/25 04:30:22;;;;;;;8.30;4.10;;;;;;;;;;4974992;28;20022;-63
2023/09/25 04:32:49;;;;;;;7.28;4.57;;;;;;;;;;4974777;28;20027;-63
2023/09/25 04:35:15;;;;;;;9.32;5.15;;;;;;;;;;4974844;28;20483;-63
2023/09/25 04:37:42;;;;;;;8.15;4.70;;;;;;;;;;4974991;28;20483;-63
2023/09/25 04:40:13;;;;;;;7.63;4.63;;;;;;;;;;4974754;28;20019;-63
2023/09/25 04:42:41;;;;;;;6.40;4.40;;;;;;;;;;4974289;28;20047;-64
2023/09/25 04:45:12;;;;;;;8.52;4.63;;;;;;;;;;4974523;28;20085;-63
2023/09/25 04:47:38;;;;;;;6.95;4.55;;;;;;;;;;4974529;28;20408;-63
2023/09/25 04:50:05;;;;;;;9.50;4.28;;;;;;;;;;4974904;28;20037;-62
2023/09/25 04:52:31;;;;;;;9.93;4.82;;;;;;;;;;4974687;28;20121;-62
2023/09/25 04:54:57;;;;;;;10.45;4.35;;;;;;;;;;4974426;28;20034;-62
2023/09/25 04:57:22;;;;;;;5.93;3.88;;;;;;;;;;4974340;28;20027;-63
2023/09/25 04:59:48;;;;;;;7.43;4.35;;;;;;;;;;4981946;28;20027;-65
2023/09/25 05:02:13;;;;;;;9.35;4.07;;;;;;;;;;4993907;28;20026;-62
2023/09/25 05:04:39;;;;;;;10.10;4.80;;;;;;;;;;4984559;28;20070;-64
2023/09/25 05:07:04;;;;;;;9.80;5.20;;;;;;;;;;4974168;28;20476;-63
2023/09/25 05:09:30;;;;;;;6.50;4.63;;;;;;;;;;4974229;28;20027;-62
2023/09/25 05:11:56;;;;;;;8.60;4.57;;;;;;;;;;4973751;28;20495;-63
2023/09/25 05:14:22;;;;;;;12.52;5.47;;;;;;;;;;4974393;28;20109;-63
2023/09/25 05:16:47;;;;;;;12.88;5.28;;;;;;;;;;4972972;28;20448;-63
2023/09/25 05:19:13;;;;;;;11.77;5.78;;;;;;;;;;4974105;28;20102;-63
2023/09/25 05:21:38;;;;;;;10.57;4.75;;;;;;;;;;4974095;28;20034;-62
2023/09/25 05:24:04;;;;;;;11.25;4.60;;;;;;;;;;4973860;28;20054;-63
2023/09/25 05:26:35;;;;;;;8.90;4.25;;;;;;;;;;4973918;28;20097;-63
2023/09/25 05:29:02;;;;;;;14.25;5.10;;;;;;;;;;4974104;28;20031;-63
2023/09/25 05:31:27;;;;;;;14.80;5.43;;;;;;;;;;4974178;28;20037;-63
2023/09/25 05:33:53;;;;;;;22.52;6.68;;;;;;;;;;4974054;28;20027;-65
2023/09/25 05:36:19;;;;;;;14.02;5.88;;;;;;;;;;4973912;28;20058;-63
2023/09/25 05:38:44;;;;;;;15.13;6.57;;;;;;;;;;4973894;28;20039;-67
2023/09/25 05:41:10;;;;;;;22.15;6.63;;;;;;;;;;4973732;28;20030;-64
2023/09/25 05:43:35;;;;;;;13.32;6.30;;;;;;;;;;4974007;28;20388;-66
2023/09/25 05:46:01;;;;;;;13.45;5.78;;;;;;;;;;4973856;28;20047;-66
2023/09/25 05:48:26;;;;;;;12.98;6.15;;;;;;;;;;4973757;28;20480;-63
2023/09/25 05:50:52;;;;;;;16.70;6.35;;;;;;;;;;4974079;28;20027;-63
2023/09/25 05:53:18;;;;;;;13.45;6.28;;;;;;;;;;4974078;28;20054;-66
2023/09/25 05:55:43;;;;;;;11.75;5.60;;;;;;;;;;4973585;28;20069;-66
2023/09/25 05:58:09;;;;;;;10.15;5.68;;;;;;;;;;4973986;28;20027;-63
2023/09/25 06:00:34;;;;;;;7.38;4.40;;;;;;;;;;4987613;28;20478;-66
2023/09/25 06:03:00;;;;;;;10.43;4.38;;;;;;;;;;4993279;28;20030;-63
2023/09/25 06:05:26;;;;;;;7.05;3.42;;;;;;;;;;4977598;28;20035;-63
2023/09/25 06:07:51;;;;;;;6.90;3.72;;;;;;;;;;4973671;28;20026;-64
2023/09/25 06:10:18;;;;;;;7.82;3.42;;;;;;;;;;4973499;28;20464;-62
2023/09/25 06:12:44;;;;;;;5.85;3.00;;;;;;;;;;4954887;28;20027;-66
2023/09/25 06:15:10;;;;;;;4.47;2.63;;;;;;;;;;4954470;28;20046;-66
2023/09/25 06:17:36;;;;;;;4.32;2.60;;;;;;;;;;4954528;28;20027;-63
2023/09/25 06:20:04;;;;;;;7.20;2.55;;;;;;;;;;4958562;28;20090;-65
2023/09/25 06:22:33;;;;;;;4.85;2.60;;;;;;;;;;4961234;28;20502;-64
2023/09/25 06:24:59;;;;;;;5.00;2.45;;;;;;;;;;4977302;28;20034;-63
2023/09/25 06:27:24;;;;;;;6.07;2.38;;;;;;;;;;4969208;28;20098;-63
2023/09/25 06:29:50;;;;;;;4.15;2.45;;;;;;;;;;4967498;28;20030;-63
2023/09/25 06:32:16;;;;;;;3.50;2.20;;;;;;;;;;4960563;28;20380;-66
2023/09/25 06:34:41;;;;;;;5.85;2.42;;;;;;;;;;4957669;28;20035;-63
2023/09/25 06:37:06;;;;;;;6.95;2.30;;;;;;;;;;4956724;28;20027;-64
2023/09/25 06:39:33;;;;;;;6.50;2.67;;;;;;;;;;4963083;28;20030;-63
2023/09/25 06:41:59;;;;;;;5.15;2.35;;;;;;;;;;4964086;28;20031;-64
2023/09/25 06:44:24;;;;;;;6.30;2.42;;;;;;;;;;4986294;28;20026;-63
2023/09/25 06:46:50;;;;;;;3.63;2.20;;;;;;;;;;4980590;28;20434;-64
2023/09/25 06:49:17;;;;;;;5.55;2.40;;;;;;;;;;4976510;28;20050;-65
2023/09/25 06:51:42;;;;;;;6.57;2.40;;;;;;;;;;4975926;28;20485;-64
2023/09/25 06:54:08;;;;;;;10.55;2.70;;;;;;;;;;4976839;28;20073;-63
2023/09/25 06:56:34;;;;;;;5.03;2.30;;;;;;;;;;4985882;28;20057;-63
2023/09/25 06:58:59;;;;;;;5.28;2.20;;;;;;;;;;4994634;28;20050;-63
2023/09/25 07:01:25;;;;;;;6.38;2.15;;;;;;;;;;4976365;28;20023;-63
2023/09/25 07:03:51;;;;;;;4.63;2.10;;;;;;;;;;4976273;28;23020;-65
2023/09/25 07:06:16;;;;;;;4.00;2.13;;;;;;;;;;4976088;28;20060;-64
2023/09/25 07:08:41;;;;;;;5.32;2.20;;;;;;;;;;4975962;28;20038;-64
2023/09/25 07:11:07;;;;;;;5.57;1.92;;;;;;;;;;4976253;28;20062;-64
2023/09/25 07:13:33;;;;;;;2.95;1.90;;;;;;;;;;4976204;28;20023;-64
2023/09/25 07:16:03;;;;;;;4.07;1.80;;;;;;;;;;4976006;28;20037;-63
2023/09/25 07:18:29;;;;;;;;;;;;;;;;;;4976420;28;20029;-64
2023/09/25 07:20:54;;;;;;;3.45;2.08;;;;;;;;;;4976376;28;19914;-63
2023/09/25 07:23:20;;;;;;;6.00;2.17;;;;;;;;;;4975738;28;20058;-64
2023/09/25 07:25:45;;;;;;;3.78;1.85;;;;;;;;;;4975831;28;20088;-67
2023/09/25 07:28:11;;;;;;;2.70;1.52;;;;;;;;;;4976029;28;20038;-63
2023/09/25 07:30:43;;;;;;;5.15;2.20;;;;;;;;;;4973499;28;20082;-63
2023/09/25 07:33:08;;;;;;;4.63;2.08;;;;;;;;;;4975768;28;20062;-64
2023/09/25 07:35:34;;;;;;;3.83;1.83;;;;;;;;;;4975554;28;20491;-63
2023/09/25 07:38:00;;;;;;;3.50;1.90;;;;;;;;;;4975628;28;20110;-63
2023/09/25 07:40:26;;;;;;;2.55;1.80;;;;;;;;;;4975492;28;20432;-63
2023/09/25 07:42:52;;;;;;;3.60;2.15;;;;;;;;;;4975299;28;20023;-65
2023/09/25 07:45:22;;;;;;;3.67;1.75;;;;;;;;;;4975230;28;20409;-64
2023/09/25 07:47:48;;;;;;;4.57;1.80;;;;;;;;;;4975129;28;20058;-64
2023/09/25 07:50:14;;;;;;;4.20;2.17;;;;;;;;;;4975381;28;20041;-63
2023/09/25 07:52:40;;;;;;;4.90;2.25;;;;;;;;;;4975504;28;20019;-64
2023/09/25 07:55:08;;;;;;;7.82;1.80;;;;;;;;;;4976192;28;20038;-64
2023/09/25 07:57:42;;;;;;;3.17;1.75;;;;;;;;;;4975318;28;20031;-64
2023/09/25 08:00:12;;;;;;;5.20;1.73;;;;;;;;;;4975505;28;20460;-63
2023/09/25 08:02:39;;;;;;;6.88;1.92;;;;;;;;;;4975321;28;20132;-64
2023/09/25 08:05:06;;;;;;;2.92;1.58;;;;;;;;;;4974649;28;20098;-63
2023/09/25 08:07:32;;;;;;;3.47;1.77;;;;;;;;;;4974963;28;20031;-63
2023/09/25 08:09:59;;;;;;;3.63;1.80;;;;;;;;;;4962229;28;20031;-63
2023/09/25 08:12:25;;;;;;;4.07;1.77;;;;;;;;;;4955799;28;20034;-64
2023/09/25 08:14:50;;;;;;;3.83;1.80;;;;;;;;;;4956012;28;20020;-63
2023/09/25 08:17:16;;;;;;;4.07;1.80;;;;;;;;;;4954453;28;20469;-64
2023/09/25 08:19:41;;;;;;;4.88;2.10;;;;;;;;;;4955497;28;20078;-63
2023/09/25 08:22:07;;;;;;;7.50;2.08;;;;;;;;;;4957141;28;20031;-63
2023/09/25 08:24:33;;;;;;;7.53;1.92;;;;;;;;;;4955537;28;20472;-63
2023/09/25 08:26:59;;;;;;;4.95;1.90;;;;;;;;;;4955319;28;20119;-63
2023/09/25 08:29:25;;;;;;;3.33;1.83;;;;;;;;;;4955339;29;20055;-64
2023/09/25 08:31:51;;;;;;;5.38;1.67;;;;;;;;;;4955303;28;20062;-63
2023/09/25 08:34:16;;;;;;;3.53;1.75;;;;;;;;;;4974192;28;20023;-63
2023/09/25 08:36:42;;;;;;;7.03;2.15;;;;;;;;;;4974599;28;20081;-64
2023/09/25 08:39:10;;;;;;;3.78;1.85;;;;;;;;;;4974634;28;20396;-64
2023/09/25 08:41:36;;;;;;;2.78;1.90;;;;;;;;;;4974113;28;20026;-63
2023/09/25 08:44:02;;;;;;;3.15;1.88;;;;;;;;;;4974262;28;20177;-64
2023/09/25 08:46:28;;;;;;;3.38;1.75;;;;;;;;;;4974496;28;20127;-64
2023/09/25 08:48:56;;;;;;;8.15;2.22;;;;;;;;;;4973919;28;20443;-66
2023/09/25 08:51:23;;;;;;;3.67;1.90;;;;;;;;;;4974456;28;20067;-64
2023/09/25 08:53:49;;;;;;;3.60;1.83;;;;;;;;;;4973863;28;20022;-66
2023/09/25 08:56:15;;;;;;;4.15;2.08;;;;;;;;;;4974320;28;20031;-66
2023/09/25 08:58:45;;;;;;;2.95;1.80;;;;;;;;;;4974254;28;20048;-65
2023/09/25 09:01:11;;;;;;;3.65;2.10;;;;;;;;;;4974030;28;20450;-64
2023/09/25 09:03:36;;;;;;;5.45;2.03;;;;;;;;;;4973945;28;20120;-66
2023/09/25 09:06:03;;;;;;;3.60;2.10;;;;;;;;;;4973925;28;20125;-64
2023/09/25 09:08:30;;;;;;;7.90;2.42;;;;;;;;;;4974101;28;20041;-64
2023/09/25 09:10:56;;;;;;;4.45;2.40;;;;;;;;;;4974100;28;20031;-63
2023/09/25 09:13:22;;;;;;;3.75;2.10;;;;;;;;;;4972595;28;20027;-64
2023/09/25 09:15:48;;;;;;;3.63;1.95;;;;;;;;;;4973939;28;20042;-66
2023/09/25 09:18:20;;;;;;;3.55;2.10;;;;;;;;;;4972390;28;20019;-64
2023/09/25 09:20:46;;;;;;;5.13;2.20;;;;;;;;;;4981329;28;20117;-64
2023/09/25 09:23:11;;;;;;;5.60;2.40;;;;;;;;;;4982795;28;20528;-66
2023/09/25 09:25:37;;;;;;;3.47;2.30;;;;;;;;;;4974022;28;20085;-66
2023/09/25 09:28:05;;;;;;;5.03;2.72;;;;;;;;;;4973645;28;20038;-65
2023/09/25 09:30:31;;;;;;;5.53;2.13;;;;;;;;;;4973888;28;20023;-64
2023/09/25 09:32:57;;;;;;;12.98;4.88;;;;;;;;;;4973705;28;20368;-66
2023/09/25 09:35:25;;;;;;;4.10;2.15;;;;;;;;;;4973875;28;20469;-64
2023/09/25 09:37:54;;;;;;;4.25;2.38;;;;;;;;;;4973592;28;20031;-64
2023/09/25 09:40:24;;;;;;;5.97;2.78;;;;;;;;;;4973737;28;20468;-64
2023/09/25 09:42:52;;;;;;;5.65;2.85;;;;;;;;;;4973721;28;20038;-65
2023/09/25 09:45:18;;;;;;;3.78;2.25;;;;;;;;;;4973427;28;20117;-65
2023/09/25 09:47:45;;;;;;;5.05;2.47;;;;;;;;;;4973251;28;20047;-64
2023/09/25 09:50:12;;;;;;;5.38;2.60;;;;;;;;;;4973462;28;20118;-67
2023/09/25 09:52:39;;;;;;;4.57;2.40;;;;;;;;;;4973969;28;20804;-63
2023/09/25 09:55:08;;;;;;;4.93;2.38;;;;;;;;;;4978373;28;20046;-63
2023/09/25 09:57:35;;;;;;;4.68;2.25;;;;;;;;;;4977604;28;20444;-63
2023/09/25 10:00:01;;;;;;;3.85;2.20;;;;;;;;;;4977419;28;20030;-63
2023/09/25 10:02:30;;;;;;;4.65;2.38;;;;;;;;;;4977623;28;20485;-63
2023/09/25 10:04:56;;;;;;;;;;;;;;;;;;4978313;28;20110;-64
2023/09/25 10:07:22;;;;;;;6.65;2.72;;;;;;;;;;4977304;28;20009;-64
2023/09/25 10:10:13;;;;;;;4.53;2.50;;;;;;;;;;4977115;28;20038;-64
2023/09/25 10:12:45;;;;;;;6.40;2.80;;;;;;;;;;4975264;28;20057;-67
2023/09/25 10:15:12;;;;;;;5.78;3.17;;;;;;;;;;4977130;28;20030;-64
2023/09/25 10:17:46;;;;;;;4.05;2.58;;;;;;;;;;4977266;28;20027;-64
2023/09/25 10:20:30;;;;;;;4.10;2.80;;;;;;;;;;4977241;28;20039;-66
2023/09/25 10:23:16;;;;;;;5.13;3.00;;;;;;;;;;4977005;28;20018;-64
2023/09/25 10:25:54;;;;;;;3.65;2.67;;;;;;;;;;4976943;28;20031;-64
2023/09/25 10:28:23;;;;;;;4.95;3.10;;;;;;;;;;4976808;28;20034;-66
2023/09/25 10:30:49;;;;;;;4.95;2.97;;;;;;;;;;4976772;28;20031;-63
2023/09/25 10:33:20;;;;;;;5.35;3.13;;;;;;;;;;4976813;28;20066;-64
2023/09/25 10:35:50;;;;;;;4.95;3.00;;;;;;;;;;4977192;28;20051;-64
2023/09/25 10:38:18;;;;;;;4.22;3.15;;;;;;;;;;4976333;28;20043;-65
2023/09/25 10:40:45;;;;;;;3.92;2.70;;;;;;;;;;4975681;28;20065;-64
2023/09/25 10:43:10;;;;;;;4.57;3.00;;;;;;;;;;4976308;28;20034;-62
2023/09/25 10:45:37;;;;;;;5.00;2.72;;;;;;;;;;4976471;28;20030;-62
2023/09/25 10:48:03;;;;;;;6.30;2.72;;;;;;;;;;4976265;28;20338;-62
2023/09/25 10:50:29;;;;;;;4.88;2.30;;;;;;;;;;4976661;28;20026;-61
2023/09/25 10:52:55;;;;;;;5.25;2.63;;;;;;;;;;4976598;28;20023;-63
2023/09/25 10:55:20;;;;;;;4.10;2.55;;;;;;;;;;4977144;28;20069;-62
2023/09/25 10:57:46;;;;;;;3.70;2.47;;;;;;;;;;4976299;28;20431;-64
2023/09/25 11:00:15;;;;;;;3.60;2.30;;;;;;;;;;4976297;28;20035;-62
2023/09/25 11:02:41;;;;;;;8.45;2.05;;;;;;;;;;4976297;28;20034;-62
2023/09/25 11:05:07;;;;;;;5.07;1.80;;;;;;;;;;4975987;28;20030;-63
2023/09/25 11:07:36;;;;;;;4.47;1.60;;;;;;;;;;4976034;28;20058;-62
2023/09/25 11:10:02;;;;;;;4.53;2.00;;;;;;;;;;4976236;28;20030;-62
2023/09/25 11:12:29;;;;;;;3.20;1.75;;;;;;;;;;4976213;28;20034;-62
2023/09/25 11:14:54;;;;;;;4.28;2.00;;;;;;;;;;4976017;28;20033;-61
2023/09/25 11:17:20;;;;;;;4.65;1.80;;;;;;;;;;4975984;28;20031;-62
2023/09/25 11:19:45;;;;;;;4.18;1.83;;;;;;;;;;4976031;28;20106;-62
2023/09/25 11:22:11;;;;;;;4.60;1.65;;;;;;;;;;4975948;28;20037;-61
2023/09/25 11:24:37;;;;;;;2.65;1.48;;;;;;;;;;4975736;28;20109;-62
2023/09/25 11:27:08;;;;;;;2.40;1.38;;;;;;;;;;4975829;28;20042;-64
2023/09/25 11:29:36;;;;;;;4.20;1.92;;;;;;;;;;4975947;28;20026;-63
2023/09/25 11:32:02;;;;;;;5.03;1.67;;;;;;;;;;4975804;28;20042;-63
2023/09/25 11:34:28;;;;;;;4.13;1.50;;;;;;;;;;4975732;28;20049;-61
2023/09/25 11:36:54;;;;;;;2.80;1.63;;;;;;;;;;4975801;28;20081;-62
2023/09/25 11:39:19;;;;;;;5.60;1.48;;;;;;;;;;4975648;28;20484;-66
2023/09/25 11:41:45;;;;;;;2.22;1.60;;;;;;;;;;4975064;28;20022;-62
2023/09/25 11:44:11;;;;;;;3.83;1.63;;;;;;;;;;4975379;28;20373;-62
2023/09/25 11:46:37;;;;;;;6.93;2.03;;;;;;;;;;4975143;28;20038;-63
2023/09/25 11:49:03;;;;;;;3.30;1.42;;;;;;;;;;4975184;28;20043;-63
2023/09/25 11:51:28;;;;;;;3.58;1.60;;;;;;;;;;4975417;28;20078;-64
2023/09/25 11:53:54;;;;;;;5.70;1.83;;;;;;;;;;4974711;28;20026;-62
2023/09/25 11:56:19;;;;;;;4.90;1.88;;;;;;;;;;4975321;28;20089;-65
2023/09/25 11:58:45;;;;;;;3.85;1.50;;;;;;;;;;4975478;28;20046;-64
2023/09/25 12:01:10;;;;;;;5.20;1.80;;;;;;;;;;4975267;28;20031;-63
2023/09/25 12:03:38;;;;;;;4.88;1.85;;;;;;;;;;4975354;28;20105;-62
2023/09/25 12:06:05;;;;;;;2.40;1.50;;;;;;;;;;4975168;28;20081;-62
2023/09/25 12:08:32;;;;;;;3.45;1.70;;;;;;;;;;4975139;28;20129;-62
2023/09/25 12:10:58;;;;;;;3.22;1.60;;;;;;;;;;4974888;28;20023;-63
2023/09/25 12:13:24;;;;;;;5.85;1.55;;;;;;;;;;4974974;28;20034;-63
2023/09/25 12:15:50;;;;;;;2.10;1.40;;;;;;;;;;4973261;28;20381;-62
2023/09/25 12:18:15;;;;;;;2.15;1.40;;;;;;;;;;4975163;28;20030;-62
2023/09/25 12:20:41;;;;;;;3.55;1.60;;;;;;;;;;4975007;28;20023;-62
2023/09/25 12:23:07;;;;;;;2.88;1.80;;;;;;;;;;4974632;28;20026;-62
2023/09/25 12:25:33;;;;;;;2.67;1.55;;;;;;;;;;4974543;28;20035;-64
2023/09/25 12:27:59;;;;;;;2.20;1.55;;;;;;;;;;4974876;28;20049;-63
2023/09/25 12:30:24;;;;;;;3.75;1.80;;;;;;;;;;4973618;28;20019;-63
2023/09/25 12:32:50;;;;;;;3.50;1.70;;;;;;;;;;4974501;28;20021;-66
2023/09/25 12:35:16;;;;;;;6.38;1.90;;;;;;;;;;4973324;28;20026;-63
2023/09/25 12:37:43;;;;;;;3.60;1.60;;;;;;;;;;4973791;28;20030;-63
2023/09/25 12:40:09;;;;;;;2.72;1.60;;;;;;;;;;4973613;28;20037;-65
2023/09/25 12:42:35;;;;;;;2.70;1.40;;;;;;;;;;4973837;28;20034;-63
2023/09/25 12:45:00;;;;;;;2.78;1.60;;;;;;;;;;4974332;28;20085;-64
2023/09/25 12:47:26;;;;;;;2.63;1.40;;;;;;;;;;4973542;28;20025;-64
2023/09/25 12:49:53;;;;;;;2.33;1.33;;;;;;;;;;4980599;28;20026;-65
2023/09/25 12:52:23;;;;;;;3.60;1.60;;;;;;;;;;4993591;28;20105;-63
2023/09/25 12:54:50;;;;;;;2.63;1.60;;;;;;;;;;4982790;28;20027;-63
2023/09/25 12:57:16;;;;;;;2.85;1.60;;;;;;;;;;4974149;28;20090;-63
2023/09/25 12:59:47;;;;;;;2.63;1.63;;;;;;;;;;4974259;28;20023;-63
2023/09/25 13:02:13;;;;;;;5.53;1.60;;;;;;;;;;4974280;28;20507;-64
2023/09/25 13:04:38;;;;;;;3.38;1.88;;;;;;;;;;4973903;28;20142;-64
2023/09/25 13:07:04;;;;;;;2.80;1.60;;;;;;;;;;4972043;28;20029;-64
2023/09/25 13:09:29;;;;;;;2.50;1.80;;;;;;;;;;4973641;28;20038;-64
2023/09/25 13:11:55;;;;;;;2.65;1.52;;;;;;;;;;4973311;28;20027;-66
2023/09/25 13:14:20;;;;;;;4.57;1.52;;;;;;;;;;4973657;28;20030;-64
2023/09/25 13:16:46;;;;;;;7.53;1.65;;;;;;;;;;4973185;28;20077;-64
2023/09/25 13:19:12;;;;;;;3.92;2.03;;;;;;;;;;4973844;28;20031;-66
2023/09/25 13:21:38;;;;;;;4.22;1.42;;;;;;;;;;4974041;28;20389;-67
2023/09/25 13:24:04;;;;;;;3.08;1.38;;;;;;;;;;4973566;28;20034;-67
2023/09/25 13:26:29;;;;;;;3.55;1.60;;;;;;;;;;4973550;28;20045;-65
2023/09/25 13:28:55;;;;;;;3.63;1.60;;;;;;;;;;4973993;28;20022;-66
2023/09/25 13:31:21;;;;;;;2.38;1.20;;;;;;;;;;4973757;28;20031;-66
2023/09/25 13:33:47;;;;;;;3.97;1.63;;;;;;;;;;4973777;28;20031;-64
2023/09/25 13:36:13;;;;;;;3.25;1.45;;;;;;;;;;4973917;28;20082;-64
2023/09/25 13:38:39;;;;;;;4.15;1.60;;;;;;;;;;4973332;28;20542;-64
2023/09/25 13:41:04;;;;;;;2.60;1.30;;;;;;;;;;4973856;28;20030;-64
2023/09/25 13:43:31;;;;;;;4.82;1.65;;;;;;;;;;4973569;28;20027;-64
2023/09/25 13:45:57;;;;;;;3.20;1.45;;;;;;;;;;4973740;28;20035;-64
2023/09/25 13:48:22;;;;;;;3.70;1.20;;;;;;;;;;4973061;28;20174;-64
2023/09/25 13:50:48;;;;;;;2.78;1.60;;;;;;;;;;4973806;28;20537;-64
2023/09/25 13:53:13;;;;;;;4.78;1.75;;;;;;;;;;4973459;28;20472;-64
2023/09/25 13:55:38;;;;;;;3.22;1.40;;;;;;;;;;4974520;28;20476;-66
2023/09/25 13:58:05;;;;;;;5.45;1.20;;;;;;;;;;4973602;28;20358;-64
2023/09/25 14:00:30;;;;;;;2.67;1.10;;;;;;;;;;4973558;28;20054;-65
2023/09/25 14:02:56;;;;;;;4.60;1.45;;;;;;;;;;4973712;28;20425;-63
2023/09/25 14:05:22;;;;;;;3.58;1.42;;;;;;;;;;4972160;28;20027;-65
2023/09/25 14:07:49;;;;;;;1.73;1.00;;;;;;;;;;4975186;28;20062;-64
2023/09/25 14:10:15;;;;;;;2.10;1.13;;;;;;;;;;4980497;28;20019;-63
2023/09/25 14:12:42;;;;;;;3.58;1.40;;;;;;;;;;4976190;28;20106;-63
2023/09/25 14:15:10;;;;;;;4.00;1.42;;;;;;;;;;4975873;28;20058;-63
2023/09/25 14:17:36;;;;;;;2.50;1.00;;;;;;;;;;4976122;28;20027;-63
2023/09/25 14:20:02;;;;;;;2.03;1.25;;;;;;;;;;4973270;28;20189;-63
2023/09/25 14:22:28;;;;;;;3.17;1.40;;;;;;;;;;4972909;28;20041;-63
2023/09/25 14:24:53;;;;;;;2.50;1.20;;;;;;;;;;4973174;28;20031;-63
2023/09/25 14:27:19;;;;;;;4.07;1.33;;;;;;;;;;4975575;28;20468;-65
2023/09/25 14:29:44;;;;;;;3.75;1.10;;;;;;;;;;4973379;28;20515;-66
2023/09/25 14:32:10;;;;;;;2.97;1.20;;;;;;;;;;4973196;28;20109;-65
2023/09/25 14:34:35;;;;;;;2.75;1.10;;;;;;;;;;4972976;28;20057;-63
2023/09/25 14:37:00;;;;;;;4.55;1.40;;;;;;;;;;4972804;28;20038;-64
2023/09/25 14:39:28;;;;;;;3.03;1.20;;;;;;;;;;4974564;28;20027;-62
2023/09/25 14:41:55;;;;;;;3.60;1.20;;;;;;;;;;4976440;28;20039;-64